CheckWX is a tool to help pilots better visualize weather data.  It is not intended as a substitute for an official pre-flight weather briefing.

14:56:20 UTC

LTBA METAR
Atatürk International Airport
Istanbul, Turkey
Current

36 mins ago

LTBA 071420Z 23007KT 9999 SCT030 BKN100 10/04 Q1018 NOSIG RMK RWY17L 23007KT 200V260 RWY05 24007KT RWY23 25010KT
Observed
Dec-7 @ 14:20 UTC
Wind
  • 230° at 7 KTS
Visibility
10,000+ meters
Flight Rules
VFR
Cloud Levels
  • Scattered at 3,000' AGL
  • Broken at 10,000' AGL
Temperature
10°C / 50°F
Dewpoint
C / 39°F
Humidity
67%
Altimeter
30.06" Hg
Pressure
1017.92 hPa
Previous

1 hour ago

LTBA 071350Z 24008KT 9999 SCT030 BKN100 10/04 Q1018 NOSIG RMK RWY17L 23007KT RWY05 23008KT RWY23 25010KT
Observed
Dec-7 @ 13:50 UTC
Wind
  • 240° at 8 KTS
Visibility
10,000+ meters
Flight Rules
VFR
Cloud Levels
  • Scattered at 3,000' AGL
  • Broken at 10,000' AGL
Temperature
10°C / 50°F
Dewpoint
C / 39°F
Humidity
67%
Altimeter
30.06" Hg
Pressure
1017.92 hPa
Previous

2 hours ago

LTBA 071320Z 23008KT 9999 SCT030 BKN100 11/02 Q1018 NOSIG RMK RWY17L 22009KT RWY05 23008KT RWY23 24009KT
Observed
Dec-7 @ 13:20 UTC
Wind
  • 230° at 8 KTS
Visibility
10,000+ meters
Flight Rules
VFR
Cloud Levels
  • Scattered at 3,000' AGL
  • Broken at 10,000' AGL
Temperature
11°C / 52°F
Dewpoint
C / 36°F
Humidity
54%
Altimeter
30.06" Hg
Pressure
1017.92 hPa